sensor_id;sensor_type;location;lat;lon;timestamp;P1;durP1;ratioP1;P2;durP2;ratioP2
31262;SDS011;17892;52.080;9.006;2022-12-18T00:01:44;9.65;;;3.92;;
31262;SDS011;17892;52.080;9.006;2022-12-18T00:04:43;7.20;;;3.22;;
31262;SDS011;17892;52.080;9.006;2022-12-18T00:07:02;8.45;;;3.72;;
31262;SDS011;17892;52.080;9.006;2022-12-18T00:09:28;9.05;;;3.33;;
31262;SDS011;17892;52.080;9.006;2022-12-18T00:11:53;9.60;;;4.28;;
31262;SDS011;17892;52.080;9.006;2022-12-18T00:14:19;6.60;;;3.20;;
31262;SDS011;17892;52.080;9.006;2022-12-18T00:16:45;8.43;;;3.40;;
31262;SDS011;17892;52.080;9.006;2022-12-18T00:19:12;9.13;;;3.58;;
31262;SDS011;17892;52.080;9.006;2022-12-18T00:21:39;7.13;;;3.17;;
31262;SDS011;17892;52.080;9.006;2022-12-18T00:24:06;6.68;;;2.60;;
31262;SDS011;17892;52.080;9.006;2022-12-18T00:26:33;7.78;;;3.10;;
31262;SDS011;17892;52.080;9.006;2022-12-18T00:29:00;8.45;;;2.90;;
31262;SDS011;17892;52.080;9.006;2022-12-18T00:31:30;8.32;;;3.10;;
31262;SDS011;17892;52.080;9.006;2022-12-18T00:33:56;7.35;;;3.28;;
31262;SDS011;17892;52.080;9.006;2022-12-18T00:36:24;11.75;;;4.30;;
31262;SDS011;17892;52.080;9.006;2022-12-18T00:38:56;11.85;;;4.45;;
31262;SDS011;17892;52.080;9.006;2022-12-18T00:41:24;10.45;;;4.22;;
31262;SDS011;17892;52.080;9.006;2022-12-18T00:44:10;11.05;;;4.72;;
31262;SDS011;17892;52.080;9.006;2022-12-18T00:46:38;9.70;;;3.92;;
31262;SDS011;17892;52.080;9.006;2022-12-18T00:49:04;7.47;;;3.35;;
31262;SDS011;17892;52.080;9.006;2022-12-18T00:51:30;7.68;;;3.60;;
31262;SDS011;17892;52.080;9.006;2022-12-18T00:53:56;10.07;;;4.35;;
31262;SDS011;17892;52.080;9.006;2022-12-18T00:56:22;10.02;;;3.72;;
31262;SDS011;17892;52.080;9.006;2022-12-18T00:58:48;8.60;;;3.47;;
31262;SDS011;17892;52.080;9.006;2022-12-18T01:01:14;9.65;;;4.32;;
31262;SDS011;17892;52.080;9.006;2022-12-18T01:03:40;10.70;;;3.83;;
31262;SDS011;17892;52.080;9.006;2022-12-18T01:06:06;9.63;;;3.97;;
31262;SDS011;17892;52.080;9.006;2022-12-18T01:08:34;9.45;;;4.32;;
31262;SDS011;17892;52.080;9.006;2022-12-18T01:11:06;8.98;;;3.70;;
31262;SDS011;17892;52.080;9.006;2022-12-18T01:13:38;13.13;;;5.03;;
31262;SDS011;17892;52.080;9.006;2022-12-18T01:16:05;8.95;;;4.07;;
31262;SDS011;17892;52.080;9.006;2022-12-18T01:18:31;8.27;;;3.78;;
31262;SDS011;17892;52.080;9.006;2022-12-18T01:20:57;8.93;;;3.78;;
31262;SDS011;17892;52.080;9.006;2022-12-18T01:23:23;9.68;;;4.00;;
31262;SDS011;17892;52.080;9.006;2022-12-18T01:25:52;9.23;;;4.53;;
31262;SDS011;17892;52.080;9.006;2022-12-18T01:28:17;11.05;;;4.57;;
31262;SDS011;17892;52.080;9.006;2022-12-18T01:30:43;10.50;;;4.72;;
31262;SDS011;17892;52.080;9.006;2022-12-18T01:33:09;11.95;;;4.55;;
31262;SDS011;17892;52.080;9.006;2022-12-18T01:35:39;10.70;;;4.53;;
31262;SDS011;17892;52.080;9.006;2022-12-18T01:38:07;9.32;;;3.95;;
31262;SDS011;17892;52.080;9.006;2022-12-18T01:40:33;9.45;;;4.13;;
31262;SDS011;17892;52.080;9.006;2022-12-18T01:42:58;8.95;;;3.47;;
31262;SDS011;17892;52.080;9.006;2022-12-18T01:45:26;9.38;;;4.18;;
31262;SDS011;17892;52.080;9.006;2022-12-18T01:50:33;7.10;;;3.35;;
31262;SDS011;17892;52.080;9.006;2022-12-18T01:53:08;10.80;;;4.32;;
31262;SDS011;17892;52.080;9.006;2022-12-18T01:55:42;10.30;;;4.15;;
31262;SDS011;17892;52.080;9.006;2022-12-18T01:58:15;13.02;;;4.53;;
31262;SDS011;17892;52.080;9.006;2022-12-18T02:00:43;9.30;;;4.05;;
31262;SDS011;17892;52.080;9.006;2022-12-18T02:03:09;9.25;;;3.90;;
31262;SDS011;17892;52.080;9.006;2022-12-18T02:05:49;10.20;;;3.92;;
31262;SDS011;17892;52.080;9.006;2022-12-18T02:16:31;10.80;;;4.75;;
31262;SDS011;17892;52.080;9.006;2022-12-18T02:19:15;9.15;;;4.57;;
31262;SDS011;17892;52.080;9.006;2022-12-18T02:28:12;12.15;;;5.38;;
31262;SDS011;17892;52.080;9.006;2022-12-18T02:30:40;13.35;;;5.22;;
31262;SDS011;17892;52.080;9.006;2022-12-18T02:33:09;13.85;;;4.90;;
31262;SDS011;17892;52.080;9.006;2022-12-18T02:35:37;11.80;;;5.28;;
31262;SDS011;17892;52.080;9.006;2022-12-18T02:38:05;9.98;;;4.55;;
31262;SDS011;17892;52.080;9.006;2022-12-18T02:40:31;9.55;;;4.25;;
31262;SDS011;17892;52.080;9.006;2022-12-18T02:43:07;10.48;;;3.35;;
31262;SDS011;17892;52.080;9.006;2022-12-18T02:45:50;7.78;;;3.22;;
31262;SDS011;17892;52.080;9.006;2022-12-18T02:48:25;13.13;;;4.70;;
31262;SDS011;17892;52.080;9.006;2022-12-18T02:54:13;7.00;;;3.28;;
31262;SDS011;17892;52.080;9.006;2022-12-18T02:56:55;8.45;;;3.25;;
31262;SDS011;17892;52.080;9.006;2022-12-18T02:59:33;10.23;;;3.92;;
31262;SDS011;17892;52.080;9.006;2022-12-18T03:02:10;9.35;;;3.50;;
31262;SDS011;17892;52.080;9.006;2022-12-18T03:05:00;8.90;;;3.75;;
31262;SDS011;17892;52.080;9.006;2022-12-18T03:11:01;6.47;;;2.25;;
31262;SDS011;17892;52.080;9.006;2022-12-18T03:21:02;5.38;;;2.42;;
31262;SDS011;17892;52.080;9.006;2022-12-18T03:23:35;6.78;;;2.92;;
31262;SDS011;17892;52.080;9.006;2022-12-18T03:26:10;6.60;;;2.60;;
31262;SDS011;17892;52.080;9.006;2022-12-18T03:28:44;7.10;;;3.40;;
31262;SDS011;17892;52.080;9.006;2022-12-18T03:31:17;6.97;;;1.98;;
31262;SDS011;17892;52.080;9.006;2022-12-18T03:36:20;6.43;;;2.08;;
31262;SDS011;17892;52.080;9.006;2022-12-18T03:38:46;7.75;;;3.00;;
31262;SDS011;17892;52.080;9.006;2022-12-18T03:43:54;7.13;;;2.95;;
31262;SDS011;17892;52.080;9.006;2022-12-18T03:49:34;11.13;;;4.43;;
31262;SDS011;17892;52.080;9.006;2022-12-18T03:52:11;9.65;;;4.95;;
31262;SDS011;17892;52.080;9.006;2022-12-18T03:54:45;11.30;;;4.72;;
31262;SDS011;17892;52.080;9.006;2022-12-18T03:57:13;8.68;;;4.10;;
31262;SDS011;17892;52.080;9.006;2022-12-18T03:59:45;9.32;;;3.85;;
31262;SDS011;17892;52.080;9.006;2022-12-18T04:02:16;12.10;;;4.63;;
31262;SDS011;17892;52.080;9.006;2022-12-18T04:04:43;8.00;;;3.92;;
31262;SDS011;17892;52.080;9.006;2022-12-18T04:07:12;10.60;;;4.82;;
31262;SDS011;17892;52.080;9.006;2022-12-18T04:09:39;9.85;;;3.85;;
31262;SDS011;17892;52.080;9.006;2022-12-18T04:12:08;9.52;;;4.10;;
31262;SDS011;17892;52.080;9.006;2022-12-18T04:14:34;9.07;;;3.80;;
31262;SDS011;17892;52.080;9.006;2022-12-18T04:17:00;12.73;;;4.93;;
31262;SDS011;17892;52.080;9.006;2022-12-18T04:19:27;10.65;;;4.25;;
31262;SDS011;17892;52.080;9.006;2022-12-18T04:21:53;9.40;;;4.40;;
31262;SDS011;17892;52.080;9.006;2022-12-18T04:24:19;11.50;;;4.60;;
31262;SDS011;17892;52.080;9.006;2022-12-18T04:26:45;9.40;;;3.95;;
31262;SDS011;17892;52.080;9.006;2022-12-18T04:29:10;10.60;;;4.57;;
31262;SDS011;17892;52.080;9.006;2022-12-18T04:31:36;7.80;;;3.35;;
31262;SDS011;17892;52.080;9.006;2022-12-18T04:34:02;10.40;;;4.45;;
31262;SDS011;17892;52.080;9.006;2022-12-18T04:36:28;8.43;;;3.75;;
31262;SDS011;17892;52.080;9.006;2022-12-18T04:38:54;10.88;;;4.25;;
31262;SDS011;17892;52.080;9.006;2022-12-18T04:41:20;10.00;;;3.90;;
31262;SDS011;17892;52.080;9.006;2022-12-18T04:43:46;9.88;;;4.32;;
31262;SDS011;17892;52.080;9.006;2022-12-18T04:46:12;8.25;;;4.20;;
31262;SDS011;17892;52.080;9.006;2022-12-18T04:48:38;9.80;;;4.15;;
31262;SDS011;17892;52.080;9.006;2022-12-18T04:51:04;7.68;;;3.40;;
31262;SDS011;17892;52.080;9.006;2022-12-18T04:53:31;9.73;;;4.35;;
31262;SDS011;17892;52.080;9.006;2022-12-18T04:56:03;13.00;;;4.18;;
31262;SDS011;17892;52.080;9.006;2022-12-18T04:58:32;7.50;;;3.65;;
31262;SDS011;17892;52.080;9.006;2022-12-18T05:00:57;9.57;;;4.40;;
31262;SDS011;17892;52.080;9.006;2022-12-18T05:03:23;10.80;;;3.83;;
31262;SDS011;17892;52.080;9.006;2022-12-18T05:05:49;9.00;;;3.83;;
31262;SDS011;17892;52.080;9.006;2022-12-18T05:08:16;10.38;;;4.15;;
31262;SDS011;17892;52.080;9.006;2022-12-18T05:10:42;12.43;;;4.20;;
31262;SDS011;17892;52.080;9.006;2022-12-18T05:13:08;9.73;;;4.32;;
31262;SDS011;17892;52.080;9.006;2022-12-18T05:15:34;9.68;;;3.67;;
31262;SDS011;17892;52.080;9.006;2022-12-18T05:18:00;10.95;;;4.38;;
31262;SDS011;17892;52.080;9.006;2022-12-18T05:20:27;8.57;;;4.05;;
31262;SDS011;17892;52.080;9.006;2022-12-18T05:22:53;7.15;;;2.80;;
31262;SDS011;17892;52.080;9.006;2022-12-18T05:25:19;11.23;;;4.28;;
31262;SDS011;17892;52.080;9.006;2022-12-18T05:27:46;10.35;;;4.32;;
31262;SDS011;17892;52.080;9.006;2022-12-18T05:30:12;13.02;;;3.95;;
31262;SDS011;17892;52.080;9.006;2022-12-18T05:32:39;9.10;;;4.20;;
31262;SDS011;17892;52.080;9.006;2022-12-18T05:35:06;8.48;;;3.63;;
31262;SDS011;17892;52.080;9.006;2022-12-18T05:37:33;9.85;;;4.32;;
31262;SDS011;17892;52.080;9.006;2022-12-18T05:40:00;10.70;;;4.35;;
31262;SDS011;17892;52.080;9.006;2022-12-18T05:42:26;9.63;;;4.20;;
31262;SDS011;17892;52.080;9.006;2022-12-18T05:44:52;9.73;;;3.92;;
31262;SDS011;17892;52.080;9.006;2022-12-18T05:47:17;10.77;;;4.32;;
31262;SDS011;17892;52.080;9.006;2022-12-18T05:49:43;10.07;;;4.00;;
31262;SDS011;17892;52.080;9.006;2022-12-18T05:52:09;6.55;;;3.00;;
31262;SDS011;17892;52.080;9.006;2022-12-18T05:54:35;9.77;;;3.78;;
31262;SDS011;17892;52.080;9.006;2022-12-18T05:57:00;10.45;;;3.60;;
31262;SDS011;17892;52.080;9.006;2022-12-18T05:59:26;8.48;;;3.10;;
31262;SDS011;17892;52.080;9.006;2022-12-18T06:01:52;10.90;;;4.53;;
31262;SDS011;17892;52.080;9.006;2022-12-18T06:04:18;11.18;;;4.40;;
31262;SDS011;17892;52.080;9.006;2022-12-18T06:06:43;10.48;;;4.63;;
31262;SDS011;17892;52.080;9.006;2022-12-18T06:09:09;9.88;;;4.05;;
31262;SDS011;17892;52.080;9.006;2022-12-18T06:11:36;10.43;;;5.00;;
31262;SDS011;17892;52.080;9.006;2022-12-18T06:14:03;9.32;;;3.70;;
31262;SDS011;17892;52.080;9.006;2022-12-18T06:16:30;10.13;;;3.90;;
31262;SDS011;17892;52.080;9.006;2022-12-18T06:19:00;9.32;;;4.65;;
31262;SDS011;17892;52.080;9.006;2022-12-18T06:21:29;11.63;;;5.13;;
31262;SDS011;17892;52.080;9.006;2022-12-18T06:23:56;8.48;;;4.10;;
31262;SDS011;17892;52.080;9.006;2022-12-18T06:26:22;9.00;;;4.13;;
31262;SDS011;17892;52.080;9.006;2022-12-18T06:28:49;10.77;;;4.95;;
31262;SDS011;17892;52.080;9.006;2022-12-18T06:31:15;11.50;;;5.22;;
31262;SDS011;17892;52.080;9.006;2022-12-18T06:33:40;10.30;;;4.47;;
31262;SDS011;17892;52.080;9.006;2022-12-18T06:36:08;11.65;;;4.53;;
31262;SDS011;17892;52.080;9.006;2022-12-18T06:38:37;11.73;;;4.88;;
31262;SDS011;17892;52.080;9.006;2022-12-18T06:41:09;9.73;;;4.43;;
31262;SDS011;17892;52.080;9.006;2022-12-18T06:43:41;10.48;;;3.95;;
31262;SDS011;17892;52.080;9.006;2022-12-18T06:46:07;11.93;;;4.57;;
31262;SDS011;17892;52.080;9.006;2022-12-18T06:48:33;8.52;;;3.78;;
31262;SDS011;17892;52.080;9.006;2022-12-18T06:51:00;10.85;;;4.55;;
31262;SDS011;17892;52.080;9.006;2022-12-18T06:53:26;9.55;;;3.80;;
31262;SDS011;17892;52.080;9.006;2022-12-18T06:55:52;8.18;;;3.53;;
31262;SDS011;17892;52.080;9.006;2022-12-18T06:58:28;9.38;;;4.22;;
31262;SDS011;17892;52.080;9.006;2022-12-18T07:00:53;9.85;;;3.97;;
31262;SDS011;17892;52.080;9.006;2022-12-18T07:03:32;10.43;;;4.22;;
31262;SDS011;17892;52.080;9.006;2022-12-18T07:05:59;8.80;;;4.13;;
31262;SDS011;17892;52.080;9.006;2022-12-18T07:08:25;12.57;;;4.38;;
31262;SDS011;17892;52.080;9.006;2022-12-18T07:10:51;9.40;;;4.45;;
31262;SDS011;17892;52.080;9.006;2022-12-18T07:13:17;9.20;;;4.43;;
31262;SDS011;17892;52.080;9.006;2022-12-18T07:15:43;7.35;;;3.25;;
31262;SDS011;17892;52.080;9.006;2022-12-18T07:18:09;9.45;;;3.72;;
31262;SDS011;17892;52.080;9.006;2022-12-18T07:20:36;11.23;;;4.25;;
31262;SDS011;17892;52.080;9.006;2022-12-18T07:23:02;9.38;;;4.10;;
31262;SDS011;17892;52.080;9.006;2022-12-18T07:25:30;8.73;;;4.10;;
31262;SDS011;17892;52.080;9.006;2022-12-18T07:28:02;10.13;;;4.40;;
31262;SDS011;17892;52.080;9.006;2022-12-18T07:30:29;8.48;;;3.53;;
31262;SDS011;17892;52.080;9.006;2022-12-18T07:32:54;7.43;;;3.08;;
31262;SDS011;17892;52.080;9.006;2022-12-18T07:35:20;10.40;;;4.10;;
31262;SDS011;17892;52.080;9.006;2022-12-18T07:37:46;11.05;;;4.30;;
31262;SDS011;17892;52.080;9.006;2022-12-18T07:40:12;9.68;;;4.38;;
31262;SDS011;17892;52.080;9.006;2022-12-18T07:42:38;8.52;;;3.83;;
31262;SDS011;17892;52.080;9.006;2022-12-18T07:45:04;9.27;;;4.30;;
31262;SDS011;17892;52.080;9.006;2022-12-18T07:47:30;11.15;;;4.80;;
31262;SDS011;17892;52.080;9.006;2022-12-18T07:49:56;10.85;;;4.18;;
31262;SDS011;17892;52.080;9.006;2022-12-18T07:52:21;9.65;;;4.00;;
31262;SDS011;17892;52.080;9.006;2022-12-18T07:54:47;9.88;;;3.63;;
31262;SDS011;17892;52.080;9.006;2022-12-18T07:57:14;8.45;;;3.75;;
31262;SDS011;17892;52.080;9.006;2022-12-18T07:59:42;9.15;;;3.92;;
31262;SDS011;17892;52.080;9.006;2022-12-18T08:02:07;7.63;;;3.10;;
31262;SDS011;17892;52.080;9.006;2022-12-18T08:04:33;8.23;;;3.42;;
31262;SDS011;17892;52.080;9.006;2022-12-18T08:07:00;7.63;;;3.45;;
31262;SDS011;17892;52.080;9.006;2022-12-18T08:09:26;7.97;;;2.78;;
31262;SDS011;17892;52.080;9.006;2022-12-18T08:11:52;9.02;;;3.28;;
31262;SDS011;17892;52.080;9.006;2022-12-18T08:14:17;7.55;;;3.28;;
31262;SDS011;17892;52.080;9.006;2022-12-18T08:16:43;7.38;;;3.13;;
31262;SDS011;17892;52.080;9.006;2022-12-18T08:19:09;7.60;;;3.20;;
31262;SDS011;17892;52.080;9.006;2022-12-18T08:21:35;8.32;;;2.95;;
31262;SDS011;17892;52.080;9.006;2022-12-18T08:24:01;7.20;;;3.38;;
31262;SDS011;17892;52.080;9.006;2022-12-18T08:26:27;7.45;;;2.88;;
31262;SDS011;17892;52.080;9.006;2022-12-18T08:28:56;7.55;;;3.55;;
31262;SDS011;17892;52.080;9.006;2022-12-18T08:31:23;6.55;;;3.10;;
31262;SDS011;17892;52.080;9.006;2022-12-18T08:33:51;7.03;;;2.90;;
31262;SDS011;17892;52.080;9.006;2022-12-18T08:36:18;6.57;;;3.15;;
31262;SDS011;17892;52.080;9.006;2022-12-18T08:38:45;8.02;;;3.22;;
31262;SDS011;17892;52.080;9.006;2022-12-18T08:41:12;8.55;;;3.42;;
31262;SDS011;17892;52.080;9.006;2022-12-18T08:43:40;7.13;;;2.67;;
31262;SDS011;17892;52.080;9.006;2022-12-18T08:46:25;7.10;;;2.60;;
31262;SDS011;17892;52.080;9.006;2022-12-18T08:48:56;7.43;;;2.92;;
31262;SDS011;17892;52.080;9.006;2022-12-18T08:51:21;6.13;;;2.42;;
31262;SDS011;17892;52.080;9.006;2022-12-18T08:53:47;7.28;;;3.80;;
31262;SDS011;17892;52.080;9.006;2022-12-18T08:56:13;7.38;;;2.75;;
31262;SDS011;17892;52.080;9.006;2022-12-18T08:58:40;6.43;;;2.92;;
31262;SDS011;17892;52.080;9.006;2022-12-18T09:01:07;7.03;;;2.83;;
31262;SDS011;17892;52.080;9.006;2022-12-18T09:03:35;7.00;;;2.03;;
31262;SDS011;17892;52.080;9.006;2022-12-18T09:06:01;5.95;;;2.50;;
31262;SDS011;17892;52.080;9.006;2022-12-18T09:08:28;6.28;;;2.38;;
31262;SDS011;17892;52.080;9.006;2022-12-18T09:10:54;5.03;;;2.10;;
31262;SDS011;17892;52.080;9.006;2022-12-18T09:13:20;5.88;;;2.53;;
31262;SDS011;17892;52.080;9.006;2022-12-18T09:15:50;5.93;;;2.33;;
31262;SDS011;17892;52.080;9.006;2022-12-18T09:18:20;6.95;;;2.20;;
31262;SDS011;17892;52.080;9.006;2022-12-18T09:20:48;7.75;;;2.60;;
31262;SDS011;17892;52.080;9.006;2022-12-18T09:23:15;5.50;;;2.45;;
31262;SDS011;17892;52.080;9.006;2022-12-18T09:25:41;7.65;;;2.50;;
31262;SDS011;17892;52.080;9.006;2022-12-18T09:28:10;5.47;;;2.42;;
31262;SDS011;17892;52.080;9.006;2022-12-18T09:30:46;5.78;;;2.60;;
31262;SDS011;17892;52.080;9.006;2022-12-18T09:33:14;6.68;;;2.85;;
31262;SDS011;17892;52.080;9.006;2022-12-18T09:35:41;5.13;;;2.45;;
31262;SDS011;17892;52.080;9.006;2022-12-18T09:38:11;5.85;;;2.50;;
31262;SDS011;17892;52.080;9.006;2022-12-18T09:40:51;5.95;;;2.50;;
31262;SDS011;17892;52.080;9.006;2022-12-18T09:43:24;6.07;;;2.20;;
31262;SDS011;17892;52.080;9.006;2022-12-18T09:46:03;7.47;;;2.35;;
31262;SDS011;17892;52.080;9.006;2022-12-18T09:48:34;8.30;;;2.60;;
31262;SDS011;17892;52.080;9.006;2022-12-18T09:51:06;6.60;;;2.40;;
31262;SDS011;17892;52.080;9.006;2022-12-18T09:53:41;7.15;;;2.33;;
31262;SDS011;17892;52.080;9.006;2022-12-18T09:56:15;4.75;;;1.92;;
31262;SDS011;17892;52.080;9.006;2022-12-18T09:58:53;4.88;;;2.35;;
31262;SDS011;17892;52.080;9.006;2022-12-18T10:01:24;5.07;;;2.30;;
31262;SDS011;17892;52.080;9.006;2022-12-18T10:03:52;4.85;;;2.15;;
31262;SDS011;17892;52.080;9.006;2022-12-18T10:09:05;6.60;;;2.45;;
31262;SDS011;17892;52.080;9.006;2022-12-18T10:15:10;5.90;;;2.30;;
31262;SDS011;17892;52.080;9.006;2022-12-18T10:18:06;6.55;;;2.30;;
31262;SDS011;17892;52.080;9.006;2022-12-18T10:20:56;6.40;;;2.80;;
31262;SDS011;17892;52.080;9.006;2022-12-18T10:26:27;6.40;;;2.33;;
31262;SDS011;17892;52.080;9.006;2022-12-18T10:28:53;5.10;;;2.15;;
31262;SDS011;17892;52.080;9.006;2022-12-18T10:31:21;6.43;;;2.45;;
31262;SDS011;17892;52.080;9.006;2022-12-18T10:33:49;6.07;;;2.80;;
31262;SDS011;17892;52.080;9.006;2022-12-18T10:36:15;6.47;;;2.85;;
31262;SDS011;17892;52.080;9.006;2022-12-18T10:38:41;6.88;;;3.15;;
31262;SDS011;17892;52.080;9.006;2022-12-18T10:44:14;7.68;;;2.83;;
31262;SDS011;17892;52.080;9.006;2022-12-18T10:46:54;5.85;;;2.88;;
31262;SDS011;17892;52.080;9.006;2022-12-18T10:49:29;6.30;;;2.88;;
31262;SDS011;17892;52.080;9.006;2022-12-18T10:52:05;9.77;;;3.30;;
31262;SDS011;17892;52.080;9.006;2022-12-18T10:54:58;8.02;;;3.00;;
31262;SDS011;17892;52.080;9.006;2022-12-18T11:00:21;5.88;;;2.40;;
31262;SDS011;17892;52.080;9.006;2022-12-18T11:02:56;5.85;;;3.15;;
31262;SDS011;17892;52.080;9.006;2022-12-18T11:07:57;8.07;;;2.85;;
31262;SDS011;17892;52.080;9.006;2022-12-18T11:10:28;7.53;;;3.05;;
31262;SDS011;17892;52.080;9.006;2022-12-18T11:15:46;7.15;;;3.13;;
31262;SDS011;17892;52.080;9.006;2022-12-18T11:18:16;8.07;;;3.05;;
31262;SDS011;17892;52.080;9.006;2022-12-18T11:20:56;5.63;;;2.90;;
31262;SDS011;17892;52.080;9.006;2022-12-18T11:23:26;6.22;;;2.60;;
31262;SDS011;17892;52.080;9.006;2022-12-18T11:25:53;7.53;;;2.88;;
31262;SDS011;17892;52.080;9.006;2022-12-18T11:36:55;6.40;;;2.50;;
31262;SDS011;17892;52.080;9.006;2022-12-18T11:39:40;5.35;;;2.60;;
31262;SDS011;17892;52.080;9.006;2022-12-18T11:42:12;6.53;;;3.20;;
31262;SDS011;17892;52.080;9.006;2022-12-18T11:44:51;7.03;;;2.75;;
31262;SDS011;17892;52.080;9.006;2022-12-18T11:50:24;6.45;;;2.85;;
31262;SDS011;17892;52.080;9.006;2022-12-18T11:52:59;7.05;;;2.97;;
31262;SDS011;17892;52.080;9.006;2022-12-18T11:55:28;5.80;;;3.00;;
31262;SDS011;17892;52.080;9.006;2022-12-18T12:08:03;6.82;;;3.20;;
31262;SDS011;17892;52.080;9.006;2022-12-18T12:13:35;5.97;;;2.70;;
31262;SDS011;17892;52.080;9.006;2022-12-18T12:22:09;5.53;;;2.58;;
31262;SDS011;17892;52.080;9.006;2022-12-18T12:33:41;6.15;;;2.13;;
31262;SDS011;17892;52.080;9.006;2022-12-18T12:39:22;6.57;;;2.60;;
31262;SDS011;17892;52.080;9.006;2022-12-18T12:42:12;5.53;;;2.08;;
31262;SDS011;17892;52.080;9.006;2022-12-18T12:45:26;6.22;;;2.38;;
31262;SDS011;17892;52.080;9.006;2022-12-18T12:48:04;5.53;;;1.83;;
31262;SDS011;17892;52.080;9.006;2022-12-18T12:50:40;5.25;;;2.10;;
31262;SDS011;17892;52.080;9.006;2022-12-18T12:53:07;4.35;;;1.92;;
31262;SDS011;17892;52.080;9.006;2022-12-18T12:55:42;5.03;;;2.10;;
31262;SDS011;17892;52.080;9.006;2022-12-18T12:58:14;10.20;;;2.65;;
31262;SDS011;17892;52.080;9.006;2022-12-18T13:01:08;4.22;;;1.73;;
31262;SDS011;17892;52.080;9.006;2022-12-18T13:03:52;6.68;;;2.10;;
31262;SDS011;17892;52.080;9.006;2022-12-18T13:06:37;4.60;;;2.28;;
31262;SDS011;17892;52.080;9.006;2022-12-18T13:09:15;4.00;;;2.00;;
31262;SDS011;17892;52.080;9.006;2022-12-18T13:11:42;4.68;;;1.80;;
31262;SDS011;17892;52.080;9.006;2022-12-18T13:17:14;4.65;;;1.80;;
31262;SDS011;17892;52.080;9.006;2022-12-18T13:20:02;4.93;;;2.20;;
31262;SDS011;17892;52.080;9.006;2022-12-18T13:25:49;4.13;;;1.65;;
31262;SDS011;17892;52.080;9.006;2022-12-18T13:35:39;5.25;;;2.20;;
31262;SDS011;17892;52.080;9.006;2022-12-18T13:38:21;4.65;;;1.67;;
31262;SDS011;17892;52.080;9.006;2022-12-18T13:43:46;5.82;;;2.00;;
31262;SDS011;17892;52.080;9.006;2022-12-18T13:46:44;5.55;;;2.25;;
31262;SDS011;17892;52.080;9.006;2022-12-18T13:51:54;5.15;;;1.95;;
31262;SDS011;17892;52.080;9.006;2022-12-18T13:54:33;5.07;;;2.20;;
31262;SDS011;17892;52.080;9.006;2022-12-18T13:57:05;5.25;;;2.25;;
31262;SDS011;17892;52.080;9.006;2022-12-18T13:59:57;5.13;;;1.85;;
31262;SDS011;17892;52.080;9.006;2022-12-18T14:02:25;6.00;;;2.10;;
31262;SDS011;17892;52.080;9.006;2022-12-18T14:04:52;4.10;;;1.80;;
31262;SDS011;17892;52.080;9.006;2022-12-18T14:07:23;4.82;;;1.83;;
31262;SDS011;17892;52.080;9.006;2022-12-18T14:09:59;5.57;;;2.08;;
31262;SDS011;17892;52.080;9.006;2022-12-18T14:12:27;5.03;;;2.08;;
31262;SDS011;17892;52.080;9.006;2022-12-18T14:20:20;5.43;;;2.05;;
31262;SDS011;17892;52.080;9.006;2022-12-18T14:22:48;4.80;;;1.70;;
31262;SDS011;17892;52.080;9.006;2022-12-18T14:27:49;5.75;;;2.22;;
31262;SDS011;17892;52.080;9.006;2022-12-18T14:33:05;5.20;;;1.90;;
31262;SDS011;17892;52.080;9.006;2022-12-18T14:35:39;6.53;;;2.25;;
31262;SDS011;17892;52.080;9.006;2022-12-18T14:41:03;7.65;;;2.58;;
31262;SDS011;17892;52.080;9.006;2022-12-18T14:43:39;5.82;;;2.40;;
31262;SDS011;17892;52.080;9.006;2022-12-18T14:49:04;5.03;;;2.55;;
31262;SDS011;17892;52.080;9.006;2022-12-18T14:51:49;4.90;;;1.90;;
31262;SDS011;17892;52.080;9.006;2022-12-18T14:54:18;6.55;;;2.35;;
31262;SDS011;17892;52.080;9.006;2022-12-18T14:56:46;5.63;;;2.30;;
31262;SDS011;17892;52.080;9.006;2022-12-18T14:59:15;4.45;;;2.13;;
31262;SDS011;17892;52.080;9.006;2022-12-18T15:09:35;5.88;;;2.40;;
31262;SDS011;17892;52.080;9.006;2022-12-18T15:12:01;5.78;;;2.55;;
31262;SDS011;17892;52.080;9.006;2022-12-18T15:17:03;5.70;;;2.65;;
31262;SDS011;17892;52.080;9.006;2022-12-18T15:19:45;5.60;;;2.25;;
31262;SDS011;17892;52.080;9.006;2022-12-18T15:22:34;6.00;;;2.33;;
31262;SDS011;17892;52.080;9.006;2022-12-18T15:25:00;5.60;;;2.30;;
31262;SDS011;17892;52.080;9.006;2022-12-18T15:27:35;6.72;;;2.60;;
31262;SDS011;17892;52.080;9.006;2022-12-18T15:32:35;6.22;;;2.67;;
31262;SDS011;17892;52.080;9.006;2022-12-18T15:35:23;6.10;;;2.55;;
31262;SDS011;17892;52.080;9.006;2022-12-18T15:37:50;6.10;;;2.53;;
31262;SDS011;17892;52.080;9.006;2022-12-18T15:40:18;7.32;;;2.60;;
31262;SDS011;17892;52.080;9.006;2022-12-18T15:42:47;6.72;;;2.88;;
31262;SDS011;17892;52.080;9.006;2022-12-18T15:45:33;6.13;;;2.50;;
31262;SDS011;17892;52.080;9.006;2022-12-18T15:47:58;5.30;;;2.63;;
31262;SDS011;17892;52.080;9.006;2022-12-18T15:50:24;7.70;;;3.03;;
31262;SDS011;17892;52.080;9.006;2022-12-18T15:52:51;6.72;;;3.08;;
31262;SDS011;17892;52.080;9.006;2022-12-18T15:55:20;6.93;;;2.97;;
31262;SDS011;17892;52.080;9.006;2022-12-18T15:58:07;7.10;;;3.03;;
31262;SDS011;17892;52.080;9.006;2022-12-18T16:00:35;6.28;;;2.78;;
31262;SDS011;17892;52.080;9.006;2022-12-18T16:03:03;8.25;;;3.03;;
31262;SDS011;17892;52.080;9.006;2022-12-18T16:05:30;8.27;;;3.40;;
31262;SDS011;17892;52.080;9.006;2022-12-18T16:07:56;7.60;;;3.55;;
31262;SDS011;17892;52.080;9.006;2022-12-18T16:10:23;7.80;;;3.25;;
31262;SDS011;17892;52.080;9.006;2022-12-18T16:12:50;6.60;;;3.40;;
31262;SDS011;17892;52.080;9.006;2022-12-18T16:15:16;7.68;;;3.30;;
31262;SDS011;17892;52.080;9.006;2022-12-18T16:17:42;7.72;;;3.10;;
31262;SDS011;17892;52.080;9.006;2022-12-18T16:20:13;7.55;;;3.75;;
31262;SDS011;17892;52.080;9.006;2022-12-18T16:22:41;7.03;;;3.25;;
31262;SDS011;17892;52.080;9.006;2022-12-18T16:27:51;8.50;;;3.70;;
31262;SDS011;17892;52.080;9.006;2022-12-18T16:30:23;7.90;;;3.67;;
31262;SDS011;17892;52.080;9.006;2022-12-18T16:32:53;7.65;;;3.53;;
31262;SDS011;17892;52.080;9.006;2022-12-18T16:35:19;6.93;;;3.72;;
31262;SDS011;17892;52.080;9.006;2022-12-18T16:37:46;9.45;;;3.78;;
31262;SDS011;17892;52.080;9.006;2022-12-18T16:40:13;7.57;;;3.72;;
31262;SDS011;17892;52.080;9.006;2022-12-18T16:42:41;7.30;;;3.50;;
31262;SDS011;17892;52.080;9.006;2022-12-18T16:45:11;8.50;;;3.55;;
31262;SDS011;17892;52.080;9.006;2022-12-18T16:47:40;8.48;;;3.72;;
31262;SDS011;17892;52.080;9.006;2022-12-18T16:50:06;9.35;;;3.47;;
31262;SDS011;17892;52.080;9.006;2022-12-18T16:52:34;7.03;;;3.30;;
31262;SDS011;17892;52.080;9.006;2022-12-18T16:55:00;8.30;;;3.95;;
31262;SDS011;17892;52.080;9.006;2022-12-18T16:57:25;8.95;;;4.03;;
31262;SDS011;17892;52.080;9.006;2022-12-18T16:59:51;11.02;;;4.22;;
31262;SDS011;17892;52.080;9.006;2022-12-18T17:04:48;8.05;;;4.20;;
31262;SDS011;17892;52.080;9.006;2022-12-18T17:07:14;9.43;;;4.20;;
31262;SDS011;17892;52.080;9.006;2022-12-18T17:09:41;10.10;;;4.82;;
31262;SDS011;17892;52.080;9.006;2022-12-18T17:12:07;10.70;;;4.97;;
31262;SDS011;17892;52.080;9.006;2022-12-18T17:14:33;10.73;;;4.82;;
31262;SDS011;17892;52.080;9.006;2022-12-18T17:17:01;8.52;;;3.78;;
31262;SDS011;17892;52.080;9.006;2022-12-18T17:19:27;8.45;;;4.00;;
31262;SDS011;17892;52.080;9.006;2022-12-18T17:21:53;9.93;;;3.72;;
31262;SDS011;17892;52.080;9.006;2022-12-18T17:24:19;9.18;;;4.28;;
31262;SDS011;17892;52.080;9.006;2022-12-18T17:26:46;9.48;;;3.92;;
31262;SDS011;17892;52.080;9.006;2022-12-18T17:29:13;10.27;;;4.45;;
31262;SDS011;17892;52.080;9.006;2022-12-18T17:31:41;8.50;;;4.00;;
31262;SDS011;17892;52.080;9.006;2022-12-18T17:34:09;9.70;;;4.30;;
31262;SDS011;17892;52.080;9.006;2022-12-18T17:36:35;10.65;;;4.57;;
31262;SDS011;17892;52.080;9.006;2022-12-18T17:39:03;10.20;;;4.82;;